Time;durP1;ratioP1;P1;durP2;ratioP2;P2;SDS_P1;SDS_P2;PMS_P1;PMS_P2;Temp;Humidity;BMP_temperature;BMP_pressure;BME280_temperature;BME280_humidity;BME280_pressure;Samples;Min_cycle;Max_cycle;Signal;HPM_P1;HPM_P2
2022/08/17 00:00:25;;;;;;;12.93;12.00;;;;;;;24.23;100.00;152130.91;5113697;28;20215;-60
2022/08/17 00:02:57;;;;;;;12.88;12.07;;;;;;;24.19;100.00;152120.69;5113642;28;20581;-61
2022/08/17 00:05:24;;;;;;;14.32;13.05;;;;;;;24.13;100.00;152106.59;5113570;28;20274;-60
2022/08/17 00:07:51;;;;;;;15.25;13.85;;;;;;;24.10;100.00;152098.94;5113510;28;20187;-60
2022/08/17 00:10:19;;;;;;;14.20;13.45;;;;;;;24.00;100.00;152074.69;5113674;28;20531;-60
2022/08/17 00:12:47;;;;;;;14.93;14.02;;;;;;;24.06;100.00;152089.97;5113757;28;20553;-59
2022/08/17 00:15:14;;;;;;;14.27;13.23;;;;;;;24.02;100.00;152078.47;5113108;28;20231;-60
2022/08/17 00:17:42;;;;;;;15.38;13.85;;;;;;;23.89;100.00;152045.31;5113312;28;20222;-61
2022/08/17 00:20:10;;;;;;;17.23;15.60;;;;;;;24.04;100.00;152083.59;5113489;28;20627;-61
2022/08/17 00:22:37;;;;;;;24.50;19.92;;;;;;;24.06;100.00;152088.72;5113128;28;20183;-60
2022/08/17 00:25:08;;;;;;;19.83;17.95;;;;;;;24.02;100.00;152079.75;5113480;28;20557;-61
2022/08/17 00:27:35;;;;;;;24.63;22.17;;;;;;;23.82;100.00;152028.69;5113402;28;20274;-59
2022/08/17 00:30:05;;;;;;;30.17;24.15;;;;;;;23.83;100.00;152030.00;5112984;28;20188;-60
2022/08/17 00:32:37;;;;;;;33.25;26.77;;;;;;;23.68;100.00;151992.94;5113278;28;20183;-60
2022/08/17 00:35:05;;;;;;;27.77;24.05;;;;;;;23.74;100.00;152007.00;5112885;28;20200;-60
2022/08/17 00:37:32;;;;;;;28.27;25.35;;;;;;;23.84;100.00;152033.84;5113257;28;20625;-61
2022/08/17 00:39:59;;;;;;;31.15;26.63;;;;;;;23.92;100.00;152052.97;5112822;28;20275;-59
2022/08/17 00:42:26;;;;;;;31.83;24.85;;;;;;;23.88;100.00;152044.03;5112766;28;20190;-59
2022/08/17 00:44:55;;;;;;;32.88;25.70;;;;;;;23.98;100.00;152069.53;5112670;28;20184;-60
2022/08/17 00:47:23;;;;;;;29.75;24.48;;;;;;;24.03;100.00;152081.03;5113001;28;20256;-60
2022/08/17 00:49:50;;;;;;;38.08;30.30;;;;;;;23.91;100.00;152051.69;5112735;28;20247;-60
2022/08/17 00:52:22;;;;;;;37.70;28.98;;;;;;;23.98;100.00;152068.25;5112901;28;20194;-60
2022/08/17 00:54:53;;;;;;;38.60;29.83;;;;;;;23.98;100.00;152069.53;5112553;28;20215;-60
2022/08/17 00:57:24;;;;;;;33.80;27.13;;;;;;;24.02;100.00;152079.75;5112431;28;20202;-60
2022/08/17 00:59:56;;;;;;;44.45;33.40;;;;;;;24.04;100.00;152084.88;5112756;28;20187;-59
2022/08/17 01:02:24;;;;;;;43.70;34.20;;;;;;;24.08;100.00;152095.09;5112738;28;20561;-60
2022/08/17 01:04:54;;;;;;;41.40;33.15;;;;;;;24.02;100.00;152079.75;5112566;28;20185;-60
2022/08/17 01:07:23;;;;;;;37.83;31.98;;;;;;;24.04;100.00;152084.88;5112478;28;20210;-59
2022/08/17 01:09:51;;;;;;;43.20;31.98;;;;;;;24.00;100.00;152073.41;5112373;28;20180;-60
2022/08/17 01:12:18;;;;;;;40.22;31.05;;;;;;;23.98;100.00;152069.53;5112577;28;20191;-60
2022/08/17 01:14:45;;;;;;;35.25;29.13;;;;;;;23.52;100.00;151952.13;5112017;28;20605;-60
2022/08/17 01:17:12;;;;;;;36.25;28.80;;;;;;;23.26;100.00;151887.00;5112268;28;20183;-60
2022/08/17 01:19:42;;;;;;;39.63;29.35;;;;;;;23.22;100.00;151878.06;5112141;28;20190;-59
2022/08/17 01:22:19;;;;;;;39.70;26.77;;;;;;;23.26;100.00;151885.72;5112083;28;20226;-59
2022/08/17 01:24:49;;;;;;;28.42;25.42;;;;;;;23.30;100.00;151897.19;5112138;28;20197;-61
2022/08/17 01:27:16;;;;;;;32.70;26.48;;;;;;;23.34;100.00;151906.16;5112105;28;20232;-60
2022/08/17 01:29:46;;;;;;;35.65;24.70;;;;;;;23.39;100.00;151918.88;5112348;28;20674;-61
2022/08/17 01:32:14;;;;;;;43.92;31.35;;;;;;;23.32;100.00;151902.31;5112076;28;20308;-60
2022/08/17 01:34:41;;;;;;;36.17;27.42;;;;;;;23.43;100.00;151929.09;5111990;28;20204;-60
2022/08/17 01:37:08;;;;;;;37.22;29.00;;;;;;;23.33;100.00;151904.88;5111879;28;20191;-60
2022/08/17 01:39:40;;;;;;;44.05;34.00;;;;;;;23.25;100.00;151884.47;5111922;28;20199;-59
2022/08/17 01:42:12;;;;;;;45.70;34.25;;;;;;;23.35;100.00;151908.69;5111864;28;20184;-59
2022/08/17 01:44:39;;;;;;;47.33;33.35;;;;;;;23.05;100.00;151834.69;5111795;28;20195;-59
2022/08/17 01:47:06;;;;;;;46.08;33.58;;;;;;;22.96;100.00;151810.44;5112069;28;20226;-60
2022/08/17 01:49:33;;;;;;;38.00;32.80;;;;;;;22.88;100.00;147634.34;5112191;28;20580;-60
2022/08/17 01:52:06;;;;;;;55.22;34.08;;;;;;;22.74;100.00;129014.25;5111860;28;20193;-60
2022/08/17 01:54:33;;;;;;;48.03;34.33;;;;;;;22.74;100.00;130706.56;5111682;28;20214;-60
2022/08/17 01:57:02;;;;;;;48.35;35.38;;;;;;;22.90;100.00;124651.63;5111919;28;20743;-60
2022/08/17 01:59:29;;;;;;;55.10;34.78;;;;;;;22.98;100.00;121625.84;5111719;28;20191;-60
2022/08/17 02:01:55;;;;;;;49.55;34.17;;;;;;;22.84;100.00;126328.41;5111739;28;20188;-60
2022/08/17 02:04:22;;;;;;;46.05;33.95;;;;;;;22.88;100.00;132090.94;5111632;28;20176;-60
2022/08/17 02:06:49;;;;;;;47.40;33.58;;;;;;;22.91;100.00;127697.50;5111584;28;20274;-62
2022/08/17 02:09:16;;;;;;;48.60;35.28;;;;;;;22.76;100.00;126651.72;5111610;28;20179;-60
2022/08/17 02:11:44;;;;;;;43.22;35.38;;;;;;;22.54;100.00;116815.16;5112992;28;20214;-59
2022/08/17 02:14:12;;;;;;;51.10;34.70;;;;;;;22.62;100.00;116156.66;5115470;28;20241;-60
2022/08/17 02:16:41;;;;;;;54.92;36.63;;;;;;;22.64;100.00;117845.47;5115652;28;20275;-60
2022/08/17 02:19:10;;;;;;;53.72;35.97;;;;;;;22.46;100.00;116799.41;5115953;28;20708;-60
2022/08/17 02:21:38;;;;;;;55.53;37.95;;;;;;;22.72;100.00;117861.41;5115566;28;20188;-60
2022/08/17 02:24:08;;;;;;;54.30;37.88;;;;;;;22.69;100.00;119542.25;5115555;28;20180;-60
2022/08/17 02:26:35;;;;;;;55.10;39.13;;;;;;;22.43;100.00;110058.22;5115794;28;20608;-60
2022/08/17 02:29:02;;;;;;;51.35;37.90;;;;;;;22.64;100.00;121894.84;5115668;28;20629;-60
2022/08/17 02:31:31;;;;;;;48.97;35.85;;;;;;;22.59;100.00;129659.38;5115370;28;20215;-60
2022/08/17 02:33:58;;;;;;;64.38;36.53;;;;;;;22.55;100.00;126268.88;5115615;28;20575;-59
2022/08/17 02:36:25;;;;;;;54.38;35.22;;;;;;;22.54;100.00;133372.09;5115296;28;20183;-60
2022/08/17 02:38:52;;;;;;;41.42;33.20;;;;;;;22.52;100.00;142348.63;5115575;28;20648;-60
2022/08/17 02:41:18;;;;;;;53.58;34.95;;;;;;;22.79;100.00;145001.97;5115442;28;20660;-60
2022/08/17 02:43:45;;;;;;;50.38;33.90;;;;;;;22.90;100.00;151795.16;5115142;28;20282;-60
2022/08/17 02:46:12;;;;;;;45.97;31.63;;;;;;;22.68;100.00;142296.72;5115001;28;20175;-59
2022/08/17 02:48:40;;;;;;;49.53;31.92;;;;;;;22.73;100.00;147040.38;5114969;28;20191;-60
2022/08/17 02:51:08;;;;;;;43.95;31.08;;;;;;;22.88;100.00;151790.03;5115107;28;20192;-61
2022/08/17 02:53:34;;;;;;;48.35;30.95;;;;;;;22.89;100.00;151793.88;5114985;28;20195;-59
2022/08/17 02:56:01;;;;;;;45.92;31.67;;;;;;;22.82;100.00;148633.66;5114826;28;20204;-60
2022/08/17 02:58:28;;;;;;;43.20;31.45;;;;;;;22.65;100.00;137803.28;5115269;28;20569;-60
2022/08/17 03:00:55;;;;;;;44.92;31.75;;;;;;;22.13;100.00;111013.25;5114892;28;20179;-60
2022/08/17 03:03:22;;;;;;;44.97;29.83;;;;;;;22.38;100.00;115771.81;5115042;28;20633;-59
2022/08/17 03:05:51;;;;;;;44.92;29.67;;;;;;;22.33;100.00;110713.31;5114721;28;20188;-59
2022/08/17 03:08:19;;;;;;;44.95;29.30;;;;;;;22.41;100.00;111400.28;5114624;28;20206;-60
2022/08/17 03:10:46;;;;;;;42.30;29.48;;;;;;;22.32;100.00;111385.25;5114829;28;20180;-60
2022/08/17 03:13:14;;;;;;;46.75;29.52;;;;;;;22.05;100.00;101259.66;5114370;28;20194;-60
2022/08/17 03:15:44;;;;;;;38.97;29.73;;;;;;;21.99;100.00;93210.38;5114715;28;20214;-60
2022/08/17 03:18:12;;;;;;;58.67;29.33;;;;;;;22.19;100.00;99606.84;5114419;28;20179;-60
2022/08/17 03:20:39;;;;;;;40.47;29.42;;;;;;;22.28;100.00;107678.81;5114705;28;20266;-60
2022/08/17 03:23:08;;;;;;;50.05;31.23;;;;;;;22.18;100.00;104636.81;5113332;28;20186;-60
2022/08/17 03:25:38;;;;;;;34.60;28.40;;;;;;;22.20;100.00;108336.44;5114641;28;20262;-60
2022/08/17 03:28:05;;;;;;;45.75;32.50;;;;;;;22.35;100.00;112062.03;5114235;28;20237;-59
2022/08/17 03:30:33;;;;;;;39.95;29.65;;;;;;;22.39;100.00;127585.78;5114262;28;20215;-61
2022/08/17 03:33:03;;;;;;;48.08;29.83;;;;;;;22.17;100.00;128216.59;5114167;28;20187;-59
2022/08/17 03:35:32;;;;;;;43.22;29.80;;;;;;;22.47;100.00;134032.63;5114337;28;20625;-59
2022/08/17 03:38:00;;;;;;;39.33;28.38;;;;;;;22.61;100.00;151722.41;5114105;28;20187;-60
2022/08/17 03:40:30;;;;;;;35.05;26.95;;;;;;;22.82;100.00;151776.03;5114019;28;20183;-60
2022/08/17 03:42:57;;;;;;;34.00;26.10;;;;;;;22.91;100.00;151797.72;5114023;28;20630;-60
2022/08/17 03:56:42;;;;;;;32.75;24.77;;;;;;;23.42;100.00;151926.56;5113898;28;20221;-60
2022/08/17 03:59:10;;;;;;;30.85;24.20;;;;;;;23.55;100.00;151959.81;5114090;28;20202;-59
2022/08/17 04:01:37;;;;;;;29.70;24.90;;;;;;;23.64;100.00;151984.03;5113646;28;20187;-60
2022/08/17 04:04:05;;;;;;;26.63;23.45;;;;;;;23.67;100.00;151990.44;5113626;28;20183;-62
2022/08/17 04:06:32;;;;;;;24.55;21.92;;;;;;;23.80;100.00;152022.34;5113878;28;20191;-59
2022/08/17 04:08:59;;;;;;;30.45;23.38;;;;;;;23.97;100.00;152065.75;5113743;28;20214;-60
2022/08/17 04:11:26;;;;;;;23.92;21.77;;;;;;;24.09;100.00;152096.38;5078915;28;20697;-60
2022/08/17 04:13:55;;;;;;;27.23;21.65;;;;;;;24.04;100.00;152084.88;5113359;28;20605;-60
2022/08/17 04:16:23;;;;;;;22.83;20.67;;;;;;;24.28;100.00;152143.63;5113206;28;20260;-60
2022/08/17 04:18:50;;;;;;;24.15;18.75;;;;;;;24.24;100.00;152133.44;5095205;28;20187;-60
2022/08/17 04:21:17;;;;;;;19.80;17.88;;;;;;;24.38;100.00;152169.19;5113072;28;20241;-60
2022/08/17 04:23:44;;;;;;;19.42;17.48;;;;;;;24.50;100.00;152201.13;5113427;28;20638;-60
2022/08/17 04:26:13;;;;;;;25.40;19.35;;;;;;;24.37;100.00;152166.63;5113113;28;20179;-60
2022/08/17 04:28:40;;;;;;;19.52;17.77;;;;;;;24.55;100.00;152212.59;5112960;28;20179;-59
2022/08/17 04:31:09;;;;;;;18.38;16.88;;;;;;;24.67;100.00;152243.25;5113225;28;20210;-61
2022/08/17 04:33:38;;;;;;;18.38;16.50;;;;;;;24.60;100.00;152225.38;5112911;28;20197;-60
2022/08/17 04:36:07;;;;;;;19.58;17.58;;;;;;;24.84;100.00;152285.41;5112593;28;20242;-54
2022/08/17 04:38:37;;;;;;;17.60;16.15;;;;;;;24.93;100.00;152308.44;5113067;28;20270;-53
2022/08/17 04:43:54;;;;;;;20.23;15.60;;;;;;;25.09;100.00;152348.03;5112923;28;20175;-54
2022/08/17 04:46:25;;;;;;;21.60;15.68;;;;;;;25.08;100.00;152346.75;5113036;28;20283;-59
2022/08/17 04:48:57;;;;;;;17.48;15.18;;;;;;;25.31;100.00;152404.25;5112699;28;20180;-59
2022/08/17 04:51:27;;;;;;;18.45;16.23;;;;;;;25.45;100.00;152441.34;5113013;28;20282;-59
2022/08/17 04:53:55;;;;;;;17.25;15.50;;;;;;;25.62;100.00;152483.56;5112590;28;20248;-60
2022/08/17 04:56:23;;;;;;;20.85;15.48;;;;;;;25.78;100.00;152523.16;5112401;28;20208;-60
2022/08/17 04:58:52;;;;;;;34.50;16.67;;;;;;;25.90;100.00;152555.09;5113005;28;20632;-60
2022/08/17 05:01:21;;;;;;;20.60;15.95;;;;;;;25.99;100.00;152575.56;5112457;28;20194;-60
2022/08/17 05:03:50;;;;;;;26.48;15.98;;;;;;;26.16;100.00;152619.03;5112771;28;20647;-60
2022/08/17 05:06:17;;;;;;;27.02;15.85;;;;;;;26.46;100.00;152695.78;5112678;28;20179;-60
2022/08/17 05:08:44;;;;;;;28.25;15.90;;;;;;;26.59;100.00;152729.03;5112736;28;20554;-60
2022/08/17 05:11:11;;;;;;;22.13;14.73;;;;;;;26.66;100.00;152746.94;5112588;28;20183;-61
2022/08/17 05:13:38;;;;;;;25.73;15.95;;;;;;;26.85;100.00;152794.31;5112125;28;20223;-61
2022/08/17 05:16:05;;;;;;;18.65;14.93;;;;;;;26.96;100.00;152821.16;5112515;28;20289;-61
2022/08/17 05:18:32;;;;;;;26.92;15.23;;;;;;;26.92;100.00;152810.91;5112209;28;20183;-60
2022/08/17 05:21:02;;;;;;;18.55;15.00;;;;;;;26.99;100.00;152828.84;5112103;28;20194;-60
2022/08/17 05:23:29;;;;;;;20.40;16.00;;;;;;;27.03;100.00;152839.09;5112182;28;20213;-60
2022/08/17 05:25:57;;;;;;;20.52;15.07;;;;;;;27.07;100.00;152849.31;5112404;28;20697;-59
2022/08/17 05:28:27;;;;;;;16.50;14.98;;;;;;;27.10;100.00;152856.97;5112166;28;20188;-60
2022/08/17 05:30:55;;;;;;;16.63;13.57;;;;;;;27.09;100.00;152855.69;5112260;28;20206;-60
2022/08/17 05:33:25;;;;;;;16.98;13.90;;;;;;;27.23;100.00;152890.25;5112191;28;20690;-61
2022/08/17 05:35:55;;;;;;;14.63;13.55;;;;;;;27.20;100.00;152883.81;5112167;28;20211;-61
2022/08/17 05:38:25;;;;;;;14.38;12.98;;;;;;;27.57;100.00;152977.28;5111820;28;20636;-60
2022/08/17 05:40:53;;;;;;;25.65;14.35;;;;;;;27.84;100.00;153043.84;5110774;28;20194;-61
2022/08/17 05:43:23;;;;;;;14.07;12.68;;;;;;;27.91;100.00;153061.75;5106007;28;20203;-60
2022/08/17 05:45:59;;;;;;;22.30;13.18;;;;;;;28.01;100.00;153087.31;5108262;28;20194;-61
2022/08/17 05:48:27;;;;;;;21.80;12.68;;;;;;;28.12;100.00;153115.56;5111104;28;20213;-60
2022/08/17 05:51:02;;;;;;;25.67;12.75;;;;;;;28.00;100.00;153084.78;5111736;28;20295;-60
2022/08/17 05:53:40;;;;;;;27.17;13.15;;;;;;;27.99;100.00;153083.50;5112495;28;20182;-61
2022/08/17 05:56:12;;;;;;;22.50;11.57;;;;;;;28.05;100.00;153098.84;5112008;28;20202;-61
2022/08/17 05:58:53;;;;;;;21.45;12.02;;;;;;;28.14;100.00;153120.66;5111984;28;20195;-60
2022/08/17 06:01:33;;;;;;;25.73;11.13;;;;;;;28.14;100.00;153120.66;5111644;28;20309;-60
2022/08/17 06:04:12;;;;;;;17.15;10.77;;;;;;;28.14;100.00;153120.66;5111602;28;20278;-61
2022/08/17 06:06:45;;;;;;;12.52;9.70;;;;;;;28.21;100.00;153138.59;5111568;28;20187;-60
2022/08/17 06:09:24;;;;;;;19.98;9.32;;;;;;;28.45;100.00;153200.03;5111317;28;20187;-61
2022/08/17 06:11:57;;;;;;;10.48;9.30;;;;;;;28.59;100.00;153234.59;5111733;28;20195;-61
2022/08/17 06:14:40;;;;;;;11.23;8.18;;;;;;;28.68;100.00;153257.66;5111829;28;20233;-60
2022/08/17 06:17:12;;;;;;;9.20;8.57;;;;;;;28.92;100.00;153317.88;5111539;28;20206;-61
2022/08/17 06:19:49;;;;;;;10.45;9.07;;;;;;;29.74;100.00;153526.75;5111152;28;20662;-61
2022/08/17 06:22:23;;;;;;;12.15;8.27;;;;;;;30.05;100.00;153604.91;5111580;28;20263;-60
2022/08/17 06:25:01;;;;;;;9.85;9.20;;;;;;;31.39;99.11;153944.75;5111340;28;20199;-60
2022/08/17 06:27:36;;;;;;;9.13;8.35;;;;;;;32.40;90.51;154201.44;5111724;28;20186;-61
2022/08/17 06:30:12;;;;;;;8.27;7.63;;;;;;;32.43;87.74;154207.81;5111653;28;20189;-61
2022/08/17 06:32:46;;;;;;;8.38;7.75;;;;;;;32.55;87.60;154238.63;5111496;28;20194;-61
2022/08/17 06:35:20;;;;;;;14.82;7.75;;;;;;;32.28;87.83;154169.34;5110429;28;20259;-60
2022/08/17 06:38:10;;;;;;;12.02;7.40;;;;;;;32.38;87.62;154196.28;5111451;28;20179;-59
2022/08/17 06:41:00;;;;;;;19.65;9.25;;;;;;;32.76;88.55;154291.34;5110939;28;20620;-61
2022/08/17 06:43:48;;;;;;;14.15;8.57;;;;;;;32.76;88.74;154291.34;5095476;28;20199;-60
2022/08/17 06:46:26;;;;;;;7.10;6.80;;;;;;;32.48;84.67;154221.97;5111489;28;20191;-60
2022/08/17 06:49:11;;;;;;;7.15;6.65;;;;;;;32.72;82.87;154282.31;5111921;28;20226;-60
2022/08/17 06:51:45;;;;;;;7.13;6.82;;;;;;;32.98;79.65;154349.06;5111874;28;20270;-61
2022/08/17 06:54:18;;;;;;;8.65;7.95;;;;;;;32.95;81.95;154340.09;5111725;28;20307;-60
2022/08/17 06:56:53;;;;;;;8.35;7.68;;;;;;;32.96;84.89;154343.97;5111537;28;20199;-61
2022/08/17 06:59:32;;;;;;;10.25;7.90;;;;;;;32.99;85.24;154351.66;5114792;28;20193;-61
2022/08/17 07:02:10;;;;;;;55.13;41.20;;;;;;;33.09;88.06;154376.06;5115156;28;20191;-61
2022/08/17 07:04:47;;;;;;;12.48;9.10;;;;;;;33.14;85.30;154387.66;5114943;28;20187;-60
2022/08/17 07:10:04;;;;;;;7.53;7.05;;;;;;;33.45;75.65;154467.22;5069971;28;20191;-60
2022/08/17 07:12:39;;;;;;;7.45;6.90;;;;;;;33.83;76.83;154564.88;5114580;28;20274;-60
2022/08/17 07:15:11;;;;;;;15.05;6.78;;;;;;;34.37;74.42;154702.34;5114469;28;20720;-61
2022/08/17 07:17:39;;;;;;;6.85;6.25;;;;;;;34.72;68.61;154789.78;5114485;28;20298;-60
2022/08/17 07:20:10;;;;;;;6.80;6.30;;;;;;;35.00;62.88;154860.47;5114641;28;20176;-61
2022/08/17 07:22:45;;;;;;;5.00;4.80;;;;;;;35.17;61.80;154904.22;5114416;28;20204;-61
2022/08/17 07:25:17;;;;;;;5.40;5.05;;;;;;;35.01;58.97;154863.06;5097165;28;20186;-64
2022/08/17 07:27:59;;;;;;;6.10;5.70;;;;;;;34.99;57.34;154857.91;5114628;28;20221;-60
2022/08/17 07:30:30;;;;;;;5.32;5.13;;;;;;;34.82;58.90;154816.78;5113138;28;20244;-60
2022/08/17 07:33:02;;;;;;;5.93;5.55;;;;;;;35.02;58.50;154865.59;5115108;28;20571;-65
2022/08/17 07:38:28;;;;;;;5.40;5.22;;;;;;;34.74;57.55;154796.22;5113544;28;20276;-61
2022/08/17 07:41:04;;;;;;;11.85;6.20;;;;;;;34.79;59.10;154807.78;5113936;28;20183;-61
2022/08/17 07:43:47;;;;;;;5.00;4.80;;;;;;;34.72;58.61;154789.78;5114266;28;20183;-62
2022/08/17 07:49:34;;;;;;;7.35;5.15;;;;;;;35.08;55.34;154881.03;5051451;28;20189;-60
2022/08/17 07:52:06;;;;;;;6.53;4.95;;;;;;;35.13;54.39;154893.91;5051050;28;20648;-62
2022/08/17 07:54:36;;;;;;;5.05;4.95;;;;;;;34.96;54.20;154850.19;5084973;28;20195;-61
2022/08/17 07:57:26;;;;;;;5.05;4.85;;;;;;;34.81;56.33;154814.19;5114320;28;20294;-61
2022/08/17 08:00:14;;;;;;;5.65;5.45;;;;;;;34.69;56.74;154783.38;5095681;28;20319;-61
2022/08/17 08:02:44;;;;;;;6.13;5.70;;;;;;;34.91;57.68;154837.34;5113638;28;20279;-61
2022/08/17 08:05:16;;;;;;;6.28;5.88;;;;;;;35.02;55.68;154866.88;5114099;28;20179;-61
2022/08/17 08:07:53;;;;;;;5.28;5.10;;;;;;;35.10;55.55;154886.16;5113729;28;20183;-61
2022/08/17 08:10:28;;;;;;;5.95;5.57;;;;;;;35.28;56.51;154933.78;5112989;28;20223;-61
2022/08/17 08:13:06;;;;;;;5.50;5.30;;;;;;;35.39;56.11;154959.50;5113590;28;20189;-62
2022/08/17 08:15:38;;;;;;;5.47;5.07;;;;;;;35.59;55.46;155010.91;5095248;28;20230;-61
2022/08/17 08:18:19;;;;;;;7.82;5.32;;;;;;;35.76;55.65;155053.38;5113314;28;20187;-61
2022/08/17 08:20:50;;;;;;;5.65;5.20;;;;;;;35.51;53.13;154990.34;5113351;28;20539;-61
2022/08/17 08:23:34;;;;;;;7.53;4.97;;;;;;;35.70;55.72;155040.50;5113263;28;20186;-62
2022/08/17 08:26:18;;;;;;;6.00;5.53;;;;;;;35.62;54.06;155019.91;5113351;28;20202;-61
2022/08/17 08:28:57;;;;;;;6.00;5.60;;;;;;;35.74;55.28;155050.78;5094943;28;20317;-61
2022/08/17 08:31:39;;;;;;;7.50;5.50;;;;;;;36.03;51.91;155122.81;5095340;28;20179;-61
2022/08/17 08:34:13;;;;;;;5.30;4.90;;;;;;;36.03;50.91;155122.81;5094750;28;20274;-60
2022/08/17 08:36:50;;;;;;;5.45;5.25;;;;;;;36.30;49.52;155191.00;5112911;28;20203;-61
2022/08/17 08:39:23;;;;;;;5.63;5.15;;;;;;;36.38;48.33;155212.88;5113073;28;20179;-61
2022/08/17 08:42:01;;;;;;;4.82;4.60;;;;;;;36.59;46.92;155265.63;5112765;28;20194;-62
2022/08/17 08:44:41;;;;;;;6.45;5.85;;;;;;;36.96;49.05;155359.56;5112723;28;20605;-61
2022/08/17 08:47:18;;;;;;;5.63;5.32;;;;;;;37.20;46.52;155420.06;5113322;28;20687;-62
2022/08/17 08:50:25;;;;;;;5.03;4.80;;;;;;;37.24;46.96;155430.34;5112821;28;20621;-61
2022/08/17 08:53:24;;;;;;;5.65;5.45;;;;;;;37.70;46.06;155547.50;5062226;28;20216;-60
2022/08/17 08:56:03;;;;;;;5.57;5.38;;;;;;;38.01;45.95;155627.38;5092560;28;20202;-60
2022/08/17 08:59:00;;;;;;;5.55;5.45;;;;;;;38.31;44.77;155704.59;5113226;28;20191;-61
2022/08/17 09:01:32;;;;;;;5.70;5.40;;;;;;;38.28;45.73;155696.84;5113012;28;20222;-60
2022/08/17 09:04:39;;;;;;;5.65;5.35;;;;;;;38.70;44.42;155802.50;5113001;28;20187;-60
2022/08/17 09:07:19;;;;;;;5.63;5.40;;;;;;;38.95;43.88;155866.94;5112772;28;20620;-61
2022/08/17 09:09:59;;;;;;;6.07;5.85;;;;;;;38.86;42.44;155842.47;5112289;28;20198;-61
2022/08/17 09:12:40;;;;;;;6.68;5.68;;;;;;;38.66;43.02;155792.22;5111963;28;20283;-62
2022/08/17 09:15:17;;;;;;;5.22;4.93;;;;;;;38.05;41.57;155637.66;5112026;28;20238;-62
2022/08/17 09:17:55;;;;;;;4.93;4.72;;;;;;;37.10;42.61;155394.31;5111829;28;20207;-61
2022/08/17 09:20:28;;;;;;;4.97;4.88;;;;;;;36.34;45.12;155202.56;5111390;28;20270;-61
2022/08/17 09:23:02;;;;;;;5.00;4.80;;;;;;;36.42;46.04;155221.84;5110553;28;20194;-61
2022/08/17 09:25:32;;;;;;;5.35;5.18;;;;;;;36.55;45.44;155256.59;5110774;28;20180;-61
2022/08/17 09:28:03;;;;;;;5.10;4.90;;;;;;;36.96;45.20;155360.81;5093805;28;20251;-61
2022/08/17 09:30:45;;;;;;;5.70;5.40;;;;;;;37.41;45.33;155475.41;5111644;28;20183;-65
2022/08/17 09:33:17;;;;;;;5.78;5.57;;;;;;;37.71;43.28;155551.38;5111892;28;20656;-61
2022/08/17 09:35:49;;;;;;;5.82;5.70;;;;;;;37.40;46.59;155472.81;5111586;28;20193;-61
2022/08/17 09:38:24;;;;;;;6.95;6.35;;;;;;;37.47;47.02;155489.56;5111988;28;20208;-61
2022/08/17 09:40:59;;;;;;;6.47;6.00;;;;;;;37.56;46.11;155512.75;5112019;28;20195;-60
2022/08/17 09:43:37;;;;;;;6.72;6.30;;;;;;;37.54;45.49;155506.31;5112176;28;20183;-62
2022/08/17 09:46:10;;;;;;;6.78;6.28;;;;;;;37.10;45.69;155395.63;5112081;28;20187;-63
2022/08/17 09:48:42;;;;;;;6.68;6.38;;;;;;;37.22;45.40;155425.25;5111724;28;20237;-61
2022/08/17 09:51:19;;;;;;;6.20;5.78;;;;;;;37.20;42.58;155420.06;5111801;28;20622;-63
2022/08/17 09:53:47;;;;;;;6.03;5.45;;;;;;;36.94;43.30;155354.41;5111625;28;20240;-61
2022/08/17 09:56:30;;;;;;;5.47;5.28;;;;;;;37.39;42.03;155470.22;5111856;28;20633;-62
2022/08/17 09:59:22;;;;;;;5.47;5.00;;;;;;;37.78;41.20;155568.09;5112034;28;20256;-61
2022/08/17 10:02:01;;;;;;;4.47;4.28;;;;;;;38.16;39.94;155665.97;5108964;28;20195;-61
2022/08/17 10:04:39;;;;;;;5.57;5.18;;;;;;;38.25;40.05;155687.84;5111881;28;20569;-61
2022/08/17 10:07:15;;;;;;;5.25;4.95;;;;;;;38.43;39.54;155732.97;5111877;28;20554;-61
2022/08/17 10:09:56;;;;;;;5.28;5.07;;;;;;;38.58;39.99;155772.84;5111629;28;20281;-61
2022/08/17 10:12:35;;;;;;;5.22;5.00;;;;;;;38.34;39.75;155711.03;5111063;28;20187;-62
2022/08/17 10:15:17;;;;;;;5.47;5.28;;;;;;;38.23;39.72;155684.00;5111392;28;20538;-61
2022/08/17 10:17:58;;;;;;;5.25;4.95;;;;;;;38.31;39.27;155704.59;5112234;28;20294;-61
2022/08/17 10:20:32;;;;;;;5.03;4.72;;;;;;;37.91;39.13;155601.56;5093734;28;20673;-62
2022/08/17 10:28:48;;;;;;;5.70;5.40;;;;;;;37.47;40.34;155490.81;5111088;28;20666;-60
2022/08/17 10:31:23;;;;;;;5.45;5.15;;;;;;;37.74;39.41;155557.78;5111881;28;20187;-62
2022/08/17 10:34:02;;;;;;;5.65;5.20;;;;;;;37.88;39.71;155593.84;5114729;28;20190;-61
2022/08/17 10:36:44;;;;;;;5.80;5.13;;;;;;;38.16;39.70;155665.97;5115598;28;20262;-62
2022/08/17 10:39:22;;;;;;;5.25;5.05;;;;;;;37.67;39.96;155541.09;5115502;28;20213;-62
2022/08/17 10:41:59;;;;;;;4.75;4.65;;;;;;;37.05;39.16;155384.03;5115467;28;20638;-61
2022/08/17 10:44:41;;;;;;;6.22;4.93;;;;;;;37.38;39.17;155467.69;5115395;28;20232;-61
2022/08/17 10:47:11;;;;;;;5.07;4.78;;;;;;;37.42;39.71;155476.69;5115334;28;20183;-61
2022/08/17 10:49:46;;;;;;;5.07;4.75;;;;;;;37.72;39.08;155552.66;5097758;28;20561;-61
2022/08/17 10:52:48;;;;;;;4.93;4.72;;;;;;;37.54;38.27;155506.31;5115585;28;20260;-61
2022/08/17 10:55:19;;;;;;;5.15;4.93;;;;;;;37.09;38.77;155393.03;5072792;28;20209;-61
2022/08/17 10:57:48;;;;;;;4.43;4.22;;;;;;;37.34;38.48;155457.41;5114979;28;20223;-63
2022/08/17 11:01:11;;;;;;;4.90;4.70;;;;;;;37.69;38.68;155546.22;5115087;28;20605;-62
2022/08/17 11:03:53;;;;;;;4.70;4.50;;;;;;;37.70;38.64;155548.78;5114867;28;20184;-62
2022/08/17 11:06:37;;;;;;;4.60;4.30;;;;;;;37.82;38.45;155579.66;5114457;28;20651;-62
2022/08/17 11:09:25;;;;;;;5.07;4.60;;;;;;;37.50;38.42;155498.56;5114610;28;20561;-61
2022/08/17 11:12:10;;;;;;;5.05;4.85;;;;;;;37.44;39.63;155483.13;5115123;28;20191;-61
2022/08/17 11:14:54;;;;;;;4.85;4.45;;;;;;;37.33;40.04;155453.53;5113728;28;20238;-61
2022/08/17 11:17:48;;;;;;;4.82;4.65;;;;;;;37.06;39.80;155386.59;5098181;28;20743;-64
2022/08/17 11:20:47;;;;;;;6.15;4.70;;;;;;;37.03;39.82;155377.56;5093907;28;20184;-62
2022/08/17 11:23:34;;;;;;;4.47;4.28;;;;;;;37.04;40.15;155380.16;5090831;28;20202;-61
2022/08/17 11:26:07;;;;;;;5.20;4.90;;;;;;;37.12;40.13;155400.78;5093998;28;20180;-61
2022/08/17 11:28:48;;;;;;;4.97;4.78;;;;;;;37.00;39.49;155369.84;5094053;28;20233;-61
2022/08/17 11:31:29;;;;;;;4.53;4.32;;;;;;;36.70;39.97;155292.66;5094210;28;20669;-62
2022/08/17 11:34:03;;;;;;;4.65;4.35;;;;;;;36.58;40.23;155263.06;5093712;28;20253;-61
2022/08/17 11:37:20;;;;;;;6.85;5.00;;;;;;;36.38;44.89;155212.88;5094163;28;20178;-60
2022/08/17 11:40:20;;;;;;;9.57;6.30;;;;;;;35.85;46.26;155076.53;5094085;28;20188;-62
2022/08/17 11:43:03;;;;;;;5.13;4.72;;;;;;;35.55;45.96;155000.63;5090244;28;20195;-61
2022/08/17 11:45:45;;;;;;;5.53;5.13;;;;;;;35.17;47.09;154905.50;5092826;28;20188;-60
2022/08/17 11:54:11;;;;;;;6.18;5.28;;;;;;;34.46;47.42;154724.19;5012035;28;20628;-61
2022/08/17 11:56:45;;;;;;;7.75;7.20;;;;;;;33.87;63.27;154573.84;5075563;28;20206;-62
2022/08/17 11:59:49;;;;;;;8.05;7.57;;;;;;;33.33;74.91;154436.41;5095418;28;20202;-61
2022/08/17 12:02:34;;;;;;;8.50;7.78;;;;;;;31.91;95.98;154075.66;5093287;28;20184;-61
2022/08/17 12:05:28;;;;;;;9.43;8.63;;;;;;;31.35;100.00;153934.50;5093062;28;20195;-62
2022/08/17 12:08:06;;;;;;;21.60;9.80;;;;;;;30.96;100.00;153835.72;5093302;28;20180;-62
2022/08/17 12:10:50;;;;;;;10.02;9.20;;;;;;;28.70;100.00;153262.81;5093348;28;20245;-61
2022/08/17 12:13:18;;;;;;;18.90;10.70;;;;;;;26.89;100.00;152804.53;5092731;28;20222;-61
2022/08/17 12:15:48;;;;;;;12.45;11.57;;;;;;;25.74;100.00;110329.63;5093088;28;20184;-60